KCAR/CAR METAR and TAF weather

Enter ICAO airport designator
Station Type Date Time Source
KCAR METAR 2022/06/29 00:54 UTC NOAA

KCAR 290054Z AUTO 00000KT 10SM CLR 17/04 A3007 RMK AO2 SLP185 T01670044


Station Type Date Time Source
KCAR Decoded METAR 2022/06/29 00:54 UTC NOAA

CARIBOU MUNICIPAL AIRPORT, ME, United States (KCAR) 46-52N 68-01W 191M
Jun 28, 2022 - 08:54 PM EDT / 2022.06.29 0054 UTC
Wind: Calm:0
Visibility: 10 mile(s):0
Sky conditions: clear
Temperature: 62.1 F (16.7 C)
Dew Point: 39.9 F (4.4 C)
Relative Humidity: 43%
Pressure (altimeter): 30.07 in. Hg (1018 hPa)
ob: KCAR 290054Z AUTO 00000KT 10SM CLR 17/04 A3007 RMK AO2 SLP185 T01670044
cycle: 1

Station Type Date Time Source
KCAR TAF 2022/06/28 18:22 UTC NOAA

TAF KCAR 281720Z 2818/2918 29010KT P6SM FEW050

Example: see airport list